createdAt,value
2023-04-08T00:01:01.477Z,95537.34
2023-04-08T00:03:29.368Z,95539.16
2023-04-08T00:05:57.134Z,95542.00
2023-04-08T00:08:26.223Z,95541.88
2023-04-08T00:10:53.937Z,95533.94
2023-04-08T00:13:21.684Z,95543.78
2023-04-08T00:15:49.437Z,95549.84
2023-04-08T00:18:18.513Z,95537.81
2023-04-08T00:20:46.504Z,95544.41
2023-04-08T00:23:14.194Z,95540.09
2023-04-08T00:25:43.482Z,95543.03
2023-04-08T00:28:11.176Z,95551.88
2023-04-08T00:30:38.948Z,95542.44
2023-04-08T00:33:06.994Z,95545.56
2023-04-08T00:35:34.791Z,95545.41
2023-04-08T00:38:03.372Z,95548.88
2023-04-08T00:40:31.124Z,95556.69
2023-04-08T00:43:00.432Z,95562.66
2023-04-08T00:45:28.233Z,95560.78
2023-04-08T00:47:56.392Z,95556.81
2023-04-08T00:50:24.212Z,95559.09
2023-04-08T00:52:51.908Z,95561.03
2023-04-08T00:55:19.633Z,95559.41
2023-04-08T00:57:47.688Z,95549.97
2023-04-08T01:00:17.501Z,95556.16
2023-04-08T01:02:52.609Z,95552.09
2023-04-08T01:05:35.793Z,95558.28
2023-04-08T01:08:08.014Z,95554.63
2023-04-08T01:10:38.293Z,95549.97
2023-04-08T01:13:10.217Z,95557.19
2023-04-08T01:15:41.325Z,95548.66
2023-04-08T01:18:13.515Z,95554.28
2023-04-08T01:20:43.060Z,95548.44
2023-04-08T01:23:19.100Z,95550.06
2023-04-08T01:25:50.570Z,95554.38
2023-04-08T01:28:21.089Z,95547.72
2023-04-08T01:30:50.174Z,95548.03
2023-04-08T01:33:19.321Z,95546.00
2023-04-08T01:35:47.482Z,95545.50
2023-04-08T01:38:18.385Z,95543.00
2023-04-08T01:40:48.255Z,95546.00
2023-04-08T01:43:18.202Z,95548.19
2023-04-08T01:45:48.003Z,95548.38
2023-04-08T01:48:16.448Z,95544.63
2023-04-08T01:50:45.543Z,95548.63
2023-04-08T01:53:13.718Z,95548.09
2023-04-08T01:55:43.017Z,95551.44
2023-04-08T01:58:20.223Z,95551.88
2023-04-08T02:00:48.379Z,95552.69
2023-04-08T02:03:19.678Z,95545.94
2023-04-08T02:05:47.746Z,95552.41
2023-04-08T02:08:15.443Z,95551.13
2023-04-08T02:10:43.114Z,95547.63
2023-04-08T02:13:12.211Z,95546.75
2023-04-08T02:15:46.088Z,95550.16
2023-04-08T02:18:17.383Z,95556.72
2023-04-08T02:20:48.850Z,95555.34
2023-04-08T02:23:22.247Z,95547.28
2023-04-08T02:25:51.489Z,95555.91
2023-04-08T02:28:21.499Z,95553.75
2023-04-08T02:30:51.874Z,95554.56
2023-04-08T02:33:22.079Z,95551.88
2023-04-08T02:35:52.090Z,95562.03
2023-04-08T02:38:20.248Z,95551.31
2023-04-08T02:40:51.066Z,95557.88
2023-04-08T02:43:20.260Z,95559.25
2023-04-08T02:45:48.139Z,95556.25
2023-04-08T02:48:15.848Z,95550.53
2023-04-08T02:50:43.522Z,95549.72
2023-04-08T02:53:11.259Z,95552.50
2023-04-08T02:55:39.575Z,95550.06
2023-04-08T02:58:07.289Z,95552.25
2023-04-08T03:00:37.238Z,95547.94
2023-04-08T03:03:05.092Z,95548.75
2023-04-08T03:05:32.916Z,95556.00
2023-04-08T03:08:00.703Z,95549.91
2023-04-08T03:10:28.497Z,95553.41
2023-04-08T03:12:56.189Z,95556.56
2023-04-08T03:15:23.866Z,95559.13
2023-04-08T03:17:52.979Z,95551.13
2023-04-08T03:20:20.759Z,95553.91
2023-04-08T03:22:48.556Z,95561.22
2023-04-08T03:25:16.273Z,95559.94
2023-04-08T03:27:43.933Z,95570.41
2023-04-08T03:30:12.114Z,95557.53
2023-04-08T03:32:40.061Z,95562.69
2023-04-08T03:35:10.405Z,95565.69
2023-04-08T03:37:38.082Z,95567.41
2023-04-08T03:40:06.817Z,95566.84
2023-04-08T03:42:35.110Z,95569.09
2023-04-08T03:45:02.852Z,95565.91
2023-04-08T03:47:30.580Z,95568.69
2023-04-08T03:49:58.345Z,95567.06
2023-04-08T03:52:27.394Z,95572.78
2023-04-08T03:54:55.128Z,95568.25
2023-04-08T03:57:22.856Z,95563.94
2023-04-08T03:59:50.573Z,95564.28
2023-04-08T04:02:18.488Z,95565.09
2023-04-08T04:04:46.362Z,95580.41
2023-04-08T04:07:14.151Z,95571.59
2023-04-08T04:09:43.224Z,95574.63
2023-04-08T04:12:10.866Z,95576.97
2023-04-08T04:14:47.690Z,95578.69
2023-04-08T04:17:15.404Z,95578.94
2023-04-08T04:19:43.113Z,95595.31
2023-04-08T04:22:10.841Z,95583.06
2023-04-08T04:24:38.507Z,95591.69
2023-04-08T04:27:07.537Z,95592.84
2023-04-08T04:29:35.838Z,95592.91
2023-04-08T04:32:03.491Z,95592.72
2023-04-08T04:34:31.349Z,95588.22
2023-04-08T04:36:59.017Z,95600.16
2023-04-08T04:39:26.758Z,95590.53
2023-04-08T04:41:54.440Z,95597.56
2023-04-08T04:44:24.042Z,95601.31
2023-04-08T04:46:51.806Z,95600.88
2023-04-08T04:49:19.551Z,95604.69
2023-04-08T04:51:47.222Z,95607.44
2023-04-08T04:54:14.928Z,95600.19
2023-04-08T04:59:36.076Z,95605.56
2023-04-08T05:02:04.062Z,95599.13
2023-04-08T05:04:31.845Z,95605.38
2023-04-08T05:07:00.564Z,95593.59
2023-04-08T05:09:28.300Z,95596.84
2023-04-08T05:11:56.028Z,95603.13
2023-04-08T05:14:23.786Z,95598.31
2023-04-08T05:16:52.862Z,95598.63
2023-04-08T05:19:20.576Z,95595.94
2023-04-08T05:21:48.286Z,95601.66
2023-04-08T05:24:16.134Z,95597.09
2023-04-08T05:26:43.786Z,95601.78
2023-04-08T05:29:11.469Z,95603.13
2023-04-08T05:31:39.248Z,95603.22
2023-04-08T05:34:08.358Z,95606.72
2023-04-08T05:36:36.024Z,95604.97
2023-04-08T05:39:03.736Z,95608.50
2023-04-08T05:41:31.426Z,95601.03
2023-04-08T05:43:59.160Z,95603.50
2023-04-08T05:46:26.915Z,95607.31
2023-04-08T05:48:54.609Z,95609.50
2023-04-08T05:51:23.684Z,95603.09
2023-04-08T05:53:51.407Z,95611.47
2023-04-08T05:56:19.194Z,95600.97
2023-04-08T05:58:47.194Z,95608.00
2023-04-08T06:01:14.933Z,95601.84
2023-04-08T06:03:42.698Z,95610.19
2023-04-08T06:06:11.742Z,95613.75
2023-04-08T06:08:41.119Z,95612.75
2023-04-08T06:11:08.878Z,95615.44
2023-04-08T06:13:37.266Z,95617.56
2023-04-08T06:16:12.137Z,95620.56
2023-04-08T06:18:40.357Z,95631.59
2023-04-08T06:21:08.108Z,95613.03
2023-04-08T06:23:35.947Z,95623.56
2023-04-08T06:26:05.711Z,95614.72
2023-04-08T06:28:33.711Z,95622.28
2023-04-08T06:31:01.425Z,95626.63
2023-04-08T06:33:29.175Z,95621.50
2023-04-08T06:36:03.739Z,95626.69
2023-04-08T06:38:31.975Z,95621.59
2023-04-08T06:41:04.920Z,95622.41
2023-04-08T06:43:32.955Z,95618.13
2023-04-08T06:46:00.622Z,95624.97
2023-04-08T06:48:30.424Z,95626.66
2023-04-08T06:50:58.807Z,95625.31
2023-04-08T06:53:27.930Z,95625.84
2023-04-08T06:55:55.782Z,95622.63
2023-04-08T06:58:24.818Z,95629.91
2023-04-08T07:00:52.557Z,95631.31
2023-04-08T07:03:20.342Z,95632.41
2023-04-08T07:05:48.666Z,95629.22
2023-04-08T07:08:16.472Z,95626.00
2023-04-08T07:10:44.898Z,95625.97
2023-04-08T07:13:13.198Z,95627.84
2023-04-08T07:15:42.440Z,95622.41
2023-04-08T07:18:10.646Z,95631.38
2023-04-08T07:20:38.418Z,95633.00
2023-04-08T07:23:06.241Z,95633.06
2023-04-08T07:25:34.391Z,95634.75
2023-04-08T07:28:02.215Z,95634.25
2023-04-08T07:30:30.032Z,95639.16
2023-04-08T07:33:00.751Z,95632.63
2023-04-08T07:35:29.086Z,95642.59
2023-04-08T07:37:57.636Z,95639.97
2023-04-08T07:40:25.366Z,95634.03
2023-04-08T07:42:53.164Z,95635.16
2023-04-08T07:45:21.354Z,95642.69
2023-04-08T07:47:49.073Z,95637.03
2023-04-08T07:50:18.690Z,95645.09
2023-04-08T07:52:46.374Z,95638.09
2023-04-08T07:55:17.838Z,95645.75
2023-04-08T07:57:46.117Z,95636.28
2023-04-08T08:00:20.824Z,95636.81
2023-04-08T08:02:49.190Z,95646.31
2023-04-08T08:05:18.496Z,95648.72
2023-04-08T08:07:46.308Z,95647.06
2023-04-08T08:10:14.009Z,95649.97
2023-04-08T08:12:41.862Z,95651.88
2023-04-08T08:15:10.941Z,95650.56
2023-04-08T08:17:38.669Z,95648.09
2023-04-08T08:20:07.964Z,95650.59
2023-04-08T08:22:47.143Z,95648.97
2023-04-08T08:25:26.172Z,95651.56
2023-04-08T08:27:55.370Z,95657.72
2023-04-08T08:30:23.085Z,95660.38
2023-04-08T08:32:52.152Z,95669.56
2023-04-08T08:35:19.908Z,95676.00
2023-04-08T08:37:49.054Z,95681.25
2023-04-08T08:40:16.997Z,95677.63
2023-04-08T08:42:52.287Z,95675.75
2023-04-08T08:45:20.504Z,95687.03
2023-04-08T08:47:51.209Z,95688.81
2023-04-08T08:50:19.596Z,95682.75
2023-04-08T08:52:52.681Z,95697.28
2023-04-08T08:55:39.495Z,95693.75
2023-04-08T08:58:21.501Z,95687.91
2023-04-08T09:00:49.179Z,95688.97
2023-04-08T09:03:19.075Z,95694.69
2023-04-08T09:05:52.065Z,95692.84
2023-04-08T09:08:29.261Z,95691.31
2023-04-08T09:10:58.044Z,95697.84
2023-04-08T09:13:26.239Z,95699.78
2023-04-08T09:16:05.085Z,95702.53
2023-04-08T09:18:33.727Z,95699.91
2023-04-08T09:21:02.395Z,95701.13
2023-04-08T09:23:42.469Z,95706.53
2023-04-08T09:26:11.500Z,95711.97
2023-04-08T09:28:40.004Z,95724.72
2023-04-08T09:31:23.612Z,95717.22
2023-04-08T09:33:52.559Z,95710.34
2023-04-08T09:36:20.898Z,95720.91
2023-04-08T09:38:50.022Z,95722.91
2023-04-08T09:41:18.857Z,95716.16
2023-04-08T09:43:50.456Z,95725.47
2023-04-08T09:46:20.541Z,95728.66
2023-04-08T09:48:52.330Z,95721.97
2023-04-08T09:51:23.654Z,95722.44
2023-04-08T09:54:00.600Z,95716.41
2023-04-08T09:56:37.336Z,95717.38
2023-04-08T09:59:12.854Z,95724.22
2023-04-08T10:01:46.026Z,95711.81
2023-04-08T10:04:18.435Z,95712.72
2023-04-08T10:06:51.499Z,95712.22
2023-04-08T10:09:21.349Z,95709.03
2023-04-08T10:11:56.478Z,95714.56
2023-04-08T10:14:27.051Z,95714.31
2023-04-08T10:17:26.177Z,95708.50
2023-04-08T10:19:54.226Z,95706.28
2023-04-08T10:22:47.927Z,95700.34
2023-04-08T10:25:33.661Z,95695.09
2023-04-08T10:28:01.721Z,95698.97
2023-04-08T10:30:43.277Z,95690.69
2023-04-08T10:33:13.281Z,95691.72
2023-04-08T10:35:46.049Z,95692.06
2023-04-08T10:38:14.372Z,95698.06
2023-04-08T10:40:44.560Z,95687.22
2023-04-08T10:43:18.558Z,95698.22
2023-04-08T10:45:51.151Z,95696.91
2023-04-08T10:48:20.681Z,95682.00
2023-04-08T10:50:55.118Z,95688.81
2023-04-08T10:53:27.176Z,95685.59
2023-04-08T10:55:56.424Z,95692.34
2023-04-08T10:58:24.180Z,95689.09
2023-04-08T11:00:51.879Z,95692.59
2023-04-08T11:03:20.665Z,95686.34
2023-04-08T11:05:51.604Z,95682.22
2023-04-08T11:08:20.963Z,95690.81
2023-04-08T11:10:49.556Z,95691.78
2023-04-08T11:13:18.756Z,95687.63
2023-04-08T11:15:46.786Z,95700.84
2023-04-08T11:18:14.758Z,95697.81
2023-04-08T11:20:44.843Z,95695.09
2023-04-08T11:23:14.693Z,95698.31
2023-04-08T11:25:43.106Z,95703.16
2023-04-08T11:28:11.284Z,95698.78
2023-04-08T11:30:42.026Z,95706.00
2023-04-08T11:33:10.174Z,95695.41
2023-04-08T11:35:51.049Z,95698.94
2023-04-08T11:38:24.229Z,95703.88
2023-04-08T11:40:55.284Z,95696.53
2023-04-08T11:43:23.402Z,95699.16
2023-04-08T11:45:52.901Z,95703.59
2023-04-08T11:48:20.647Z,95705.78
2023-04-08T11:50:48.477Z,95699.25
2023-04-08T11:53:20.674Z,95702.47
2023-04-08T11:55:49.463Z,95705.66
2023-04-08T11:58:17.518Z,95712.31
2023-04-08T12:00:45.694Z,95712.63
2023-04-08T12:03:14.917Z,95721.16
2023-04-08T12:05:43.189Z,95717.28
2023-04-08T12:08:10.963Z,95726.47
2023-04-08T12:10:38.924Z,95723.28
2023-04-08T12:13:06.785Z,95733.78
2023-04-08T12:15:34.441Z,95730.19
2023-04-08T12:18:02.165Z,95729.44
2023-04-08T12:20:31.322Z,95732.44
2023-04-08T12:22:59.005Z,95734.56
2023-04-08T12:25:27.662Z,95723.00
2023-04-08T12:27:55.314Z,95735.69
2023-04-08T12:30:22.980Z,95736.69
2023-04-08T12:32:50.761Z,95743.28
2023-04-08T12:35:18.513Z,95740.03
2023-04-08T12:37:47.582Z,95745.94
2023-04-08T12:40:16.215Z,95748.91
2023-04-08T12:42:43.899Z,95750.38
2023-04-08T12:45:11.803Z,95757.66
2023-04-08T12:47:39.513Z,95747.75
2023-04-08T12:50:09.814Z,95740.19
2023-04-08T12:52:37.579Z,95745.31
2023-04-08T12:55:07.989Z,95751.28
2023-04-08T12:57:35.741Z,95756.34
2023-04-08T13:00:04.214Z,95753.09
2023-04-08T13:02:32.072Z,95754.03
2023-04-08T13:04:59.894Z,95755.66
2023-04-08T13:07:27.545Z,95754.34
2023-04-08T13:09:55.296Z,95758.44
2023-04-08T13:12:24.377Z,95756.91
2023-04-08T13:14:52.048Z,95756.09
2023-04-08T13:17:19.765Z,95757.56
2023-04-08T13:19:47.911Z,95764.94
2023-04-08T13:22:15.578Z,95763.00
2023-04-08T13:24:43.402Z,95765.63
2023-04-08T13:27:11.053Z,95761.22
2023-04-08T13:29:40.106Z,95771.13
2023-04-08T13:32:08.213Z,95767.78
2023-04-08T13:34:35.987Z,95777.03
2023-04-08T13:37:04.283Z,95781.44
2023-04-08T13:39:32.111Z,95774.03
2023-04-08T13:41:59.929Z,95777.94
2023-04-08T13:44:27.712Z,95777.28
2023-04-08T13:46:56.776Z,95779.84
2023-04-08T13:49:24.508Z,95787.34
2023-04-08T13:51:52.147Z,95783.03
2023-04-08T13:54:19.881Z,95784.91
2023-04-08T13:56:47.558Z,95784.22
2023-04-08T13:59:15.377Z,95793.44
2023-04-08T14:01:43.188Z,95796.53
2023-04-08T14:04:12.416Z,95799.41
2023-04-08T14:06:40.099Z,95800.78
2023-04-08T14:09:07.811Z,95797.88
2023-04-08T14:11:36.409Z,95800.06
2023-04-08T14:14:05.977Z,95792.75
2023-04-08T14:16:35.617Z,95801.78
2023-04-08T14:19:03.393Z,95804.31
2023-04-08T14:21:32.922Z,95801.66
2023-04-08T14:24:02.516Z,95802.56
2023-04-08T14:26:31.053Z,95810.66
2023-04-08T14:28:58.759Z,95807.06
2023-04-08T14:31:26.530Z,95805.75
2023-04-08T14:33:54.236Z,95800.69
2023-04-08T14:36:24.248Z,95802.41
2023-04-08T14:38:53.734Z,95809.06
2023-04-08T14:41:21.827Z,95809.41
2023-04-08T14:43:50.009Z,95810.78
2023-04-08T14:46:17.764Z,95807.56
2023-04-08T14:48:45.437Z,95807.72
2023-04-08T14:51:13.481Z,95804.53
2023-04-08T14:53:41.197Z,95807.66
2023-04-08T14:56:10.498Z,95811.66
2023-04-08T14:58:38.249Z,95817.00
2023-04-08T15:01:06.098Z,95816.34
2023-04-08T15:03:33.919Z,95819.03
2023-04-08T15:06:01.910Z,95816.34
2023-04-08T15:08:29.669Z,95814.28
2023-04-08T15:10:57.732Z,95816.91
2023-04-08T15:13:26.750Z,95827.44
2023-04-08T15:15:54.488Z,95816.34
2023-04-08T15:18:22.159Z,95823.34
2023-04-08T15:20:49.841Z,95827.09
2023-04-08T15:23:17.982Z,95829.22
2023-04-08T15:25:46.345Z,95831.44
2023-04-08T15:28:13.984Z,95836.72
2023-04-08T15:30:44.475Z,95826.88
2023-04-08T15:33:12.254Z,95833.06
2023-04-08T15:35:40.055Z,95828.50
2023-04-08T15:38:07.825Z,95836.34
2023-04-08T15:40:35.507Z,95837.06
2023-04-08T15:43:03.844Z,95836.25
2023-04-08T15:45:31.795Z,95832.50
2023-04-08T15:48:00.873Z,95838.28
2023-04-08T15:50:29.890Z,95832.59
2023-04-08T15:52:57.927Z,95836.59
2023-04-08T15:55:25.652Z,95835.59
2023-04-08T15:57:56.457Z,95839.91
2023-04-08T16:00:24.763Z,95835.53
2023-04-08T16:02:52.772Z,95846.59
2023-04-08T16:05:22.170Z,95844.47
2023-04-08T16:07:50.097Z,95851.16
2023-04-08T16:10:17.936Z,95856.00
2023-04-08T16:12:46.260Z,95855.34
2023-04-08T16:15:14.020Z,95855.69
2023-04-08T16:17:41.745Z,95858.38
2023-04-08T16:20:10.638Z,95866.28
2023-04-08T16:22:39.754Z,95865.78
2023-04-08T16:25:08.230Z,95864.72
2023-04-08T16:27:36.988Z,95871.16
2023-04-08T16:30:05.585Z,95870.53
2023-04-08T16:32:33.289Z,95877.03
2023-04-08T16:35:01.265Z,95873.47
2023-04-08T16:37:29.048Z,95876.63
2023-04-08T16:39:58.142Z,95880.03
2023-04-08T16:42:26.050Z,95886.72
2023-04-08T16:44:57.137Z,95879.69
2023-04-08T16:47:25.078Z,95890.31
2023-04-08T16:49:53.038Z,95891.38
2023-04-08T16:52:21.071Z,95889.50
2023-04-08T16:54:48.824Z,95889.38
2023-04-08T16:57:18.141Z,95894.41
2023-04-08T16:59:45.926Z,95893.81
2023-04-08T17:02:13.676Z,95898.16
2023-04-08T17:04:41.834Z,95894.75
2023-04-08T17:07:09.606Z,95895.47
2023-04-08T17:09:37.564Z,95896.53
2023-04-08T17:12:05.549Z,95903.19
2023-04-08T17:14:36.050Z,95907.53
2023-04-08T17:17:03.722Z,95913.47
2023-04-08T17:19:31.396Z,95909.16
2023-04-08T17:21:59.069Z,95906.47
2023-04-08T17:24:26.838Z,95902.97
2023-04-08T17:26:56.754Z,95895.81
2023-04-08T17:29:24.518Z,95907.28
2023-04-08T17:31:53.575Z,95911.59
2023-04-08T17:34:21.248Z,95912.09
2023-04-08T17:36:48.902Z,95913.97
2023-04-08T17:39:16.587Z,95919.44
2023-04-08T17:41:45.816Z,95919.84
2023-04-08T17:44:13.927Z,95926.53
2023-04-08T17:46:41.938Z,95928.66
2023-04-08T17:49:12.865Z,95923.75
2023-04-08T17:51:40.942Z,95931.00
2023-04-08T17:54:08.697Z,95937.22
2023-04-08T17:56:36.375Z,95931.59
2023-04-08T17:59:04.194Z,95938.50
2023-04-08T18:01:31.932Z,95934.41
2023-04-08T18:03:59.845Z,95940.03
2023-04-08T18:06:28.999Z,95944.13
2023-04-08T18:08:56.678Z,95943.66
2023-04-08T18:11:26.536Z,95937.69
2023-04-08T18:13:54.577Z,95948.47
2023-04-08T18:16:23.213Z,95956.53
2023-04-08T18:18:51.398Z,95959.78
2023-04-08T18:21:19.227Z,95955.31
2023-04-08T18:23:48.357Z,95962.84
2023-04-08T18:26:16.110Z,95973.25
2023-04-08T18:28:43.785Z,95969.50
2023-04-08T18:31:11.678Z,95966.81
2023-04-08T18:33:39.693Z,95977.56
2023-04-08T18:36:08.897Z,95981.09
2023-04-08T18:38:37.126Z,95980.69
2023-04-08T18:41:06.525Z,95986.66
2023-04-08T18:43:34.806Z,95984.66
2023-04-08T18:46:02.663Z,95982.13
2023-04-08T18:48:30.387Z,95994.63
2023-04-08T18:50:58.643Z,95995.13
2023-04-08T18:53:26.480Z,95999.19
2023-04-08T18:55:54.929Z,95996.41
2023-04-08T18:58:24.038Z,96004.50
2023-04-08T19:00:51.837Z,95999.19
2023-04-08T19:03:19.634Z,96004.00
2023-04-08T19:05:47.596Z,96003.75
2023-04-08T19:08:15.380Z,96008.31
2023-04-08T19:10:43.105Z,96010.69
2023-04-08T19:13:10.772Z,96010.09
2023-04-08T19:15:39.900Z,96009.88
2023-04-08T19:18:07.727Z,96018.53
2023-04-08T19:20:35.444Z,96020.28
2023-04-08T19:23:03.489Z,96024.84
2023-04-08T19:25:31.865Z,96020.16
2023-04-08T19:27:59.534Z,96019.34
2023-04-08T19:30:27.309Z,96025.63
2023-04-08T19:32:56.438Z,96018.28
2023-04-08T19:35:24.228Z,96028.22
2023-04-08T19:37:52.153Z,96025.03
2023-04-08T19:40:20.560Z,96024.81
2023-04-08T19:42:48.310Z,96030.53
2023-04-08T19:45:16.128Z,96025.59
2023-04-08T19:47:44.874Z,96029.22
2023-04-08T19:50:15.519Z,96031.69
2023-04-08T19:52:43.206Z,96030.63
2023-04-08T19:55:11.270Z,96026.06
2023-04-08T19:57:39.226Z,96028.41
2023-04-08T20:00:08.357Z,96019.03
2023-04-08T20:02:36.297Z,96027.84
2023-04-08T20:05:04.259Z,96029.72
2023-04-08T20:07:33.482Z,96030.28
2023-04-08T20:10:01.267Z,96032.28
2023-04-08T20:12:30.226Z,96031.22
2023-04-08T20:14:57.933Z,96027.94
2023-04-08T20:17:26.435Z,96033.09
2023-04-08T20:19:54.227Z,96040.09
2023-04-08T20:22:22.305Z,96031.53
2023-04-08T20:24:51.567Z,96032.28
2023-04-08T20:27:19.860Z,96028.28
2023-04-08T20:29:47.695Z,96040.94
2023-04-08T20:32:15.504Z,96038.78
2023-04-08T20:34:43.369Z,96030.97
2023-04-08T20:37:11.779Z,96040.09
2023-04-08T20:39:39.617Z,96031.22
2023-04-08T20:42:09.471Z,96027.47
2023-04-08T20:44:37.357Z,96031.22
2023-04-08T20:47:05.335Z,96036.09
2023-04-08T20:49:34.690Z,96036.44
2023-04-08T20:52:02.537Z,96038.06
2023-04-08T20:54:31.682Z,96037.19
2023-04-08T20:56:59.668Z,96029.91
2023-04-08T20:59:28.955Z,96031.78
2023-04-08T21:01:56.818Z,96038.06
2023-04-08T21:04:24.685Z,96037.13
2023-04-08T21:06:52.464Z,96035.34
2023-04-08T21:09:20.224Z,96042.59
2023-04-08T21:11:47.989Z,96044.47
2023-04-08T21:14:15.786Z,96036.88
2023-04-08T21:16:45.015Z,96045.66
2023-04-08T21:19:12.843Z,96046.38
2023-04-08T21:21:41.038Z,96035.31
2023-04-08T21:24:09.877Z,96046.38
2023-04-08T21:26:37.717Z,96052.75
2023-04-08T21:29:05.462Z,96044.91
2023-04-08T21:31:33.296Z,96046.44
2023-04-08T21:34:02.462Z,96051.25
2023-04-08T21:36:31.385Z,96064.94
2023-04-08T21:38:59.112Z,96056.03
2023-04-08T21:41:28.417Z,96057.56
2023-04-08T21:43:58.258Z,96051.88
2023-04-08T21:46:26.233Z,96055.03
2023-04-08T21:48:54.163Z,96054.44
2023-04-08T21:51:23.449Z,96059.00
2023-04-08T21:53:51.931Z,96055.16
2023-04-08T21:56:19.955Z,96050.00
2023-04-08T21:58:47.719Z,96051.78
2023-04-08T22:01:15.712Z,96050.97
2023-04-08T22:03:43.936Z,96054.59
2023-04-08T22:06:16.707Z,96055.31
2023-04-08T22:08:54.785Z,96057.56
2023-04-08T22:11:22.833Z,96058.50
2023-04-08T22:13:50.587Z,96057.56
2023-04-08T22:16:18.628Z,96069.84
2023-04-08T22:18:46.524Z,96055.59
2023-04-08T22:21:14.876Z,96064.00
2023-04-08T22:23:42.828Z,96063.75
2023-04-08T22:26:13.013Z,96064.34
2023-04-08T22:28:41.346Z,96061.53
2023-04-08T22:31:10.412Z,96060.38
2023-04-08T22:33:38.633Z,96058.50
2023-04-08T22:36:06.963Z,96060.94
2023-04-08T22:38:34.705Z,96066.16
2023-04-08T22:41:02.587Z,96065.94
2023-04-08T22:43:31.755Z,96074.28
2023-04-08T22:45:59.573Z,96078.13
2023-04-08T22:48:27.283Z,96073.06
2023-04-08T22:50:55.072Z,96072.59
2023-04-08T22:59:20.026Z,96070.09
2023-04-08T23:01:47.799Z,96073.25
2023-04-08T23:04:15.818Z,96073.53
2023-04-08T23:06:43.529Z,96076.78
2023-04-08T23:09:11.209Z,96074.59
2023-04-08T23:11:38.933Z,96073.84
2023-04-08T23:14:06.637Z,96076.16
2023-04-08T23:16:35.770Z,96078.91
2023-04-08T23:19:03.475Z,96076.28
2023-04-08T23:21:31.184Z,96074.06
2023-04-08T23:23:58.872Z,96081.13
2023-04-08T23:26:26.648Z,96078.88
2023-04-08T23:28:54.507Z,96080.75
2023-04-08T23:31:22.286Z,96084.69
2023-04-08T23:33:51.398Z,96082.59
2023-04-08T23:36:19.153Z,96084.63
2023-04-08T23:38:46.796Z,96081.19
2023-04-08T23:41:14.480Z,96087.44
2023-04-08T23:43:42.187Z,96085.22
2023-04-08T23:46:09.955Z,96080.66
2023-04-08T23:48:37.687Z,96087.06
2023-04-08T23:51:07.112Z,96081.09
2023-04-08T23:53:34.756Z,96080.06
2023-04-08T23:56:06.697Z,96089.09
2023-04-08T23:58:34.479Z,96094.22
